createdAt,value
2022-12-13T00:01:24.918Z,77249.75
2022-12-13T00:04:00.880Z,77261.91
2022-12-13T00:06:29.385Z,77261.91
2022-12-13T00:08:57.314Z,77253.78
2022-12-13T00:11:25.048Z,77282.19
2022-12-13T00:13:51.886Z,77247.72
2022-12-13T00:16:22.805Z,77253.78
2022-12-13T00:18:51.771Z,77259.88
2022-12-13T00:21:20.977Z,77274.06
2022-12-13T00:23:48.145Z,77274.06
2022-12-13T00:26:21.401Z,77290.28
2022-12-13T00:28:49.504Z,77294.34
2022-12-13T00:34:05.520Z,77290.28
2022-12-13T00:36:32.635Z,77306.50
2022-12-13T00:39:02.784Z,77302.44
2022-12-13T00:41:34.955Z,77314.63
2022-12-13T00:44:03.410Z,77306.50
2022-12-13T00:46:31.354Z,77318.66
2022-12-13T00:49:01.243Z,77326.78
2022-12-13T00:51:31.652Z,77322.72
2022-12-13T00:54:00.015Z,77318.66
2022-12-13T00:56:29.524Z,77322.72
2022-12-13T00:58:57.265Z,77302.44
2022-12-13T01:01:27.660Z,77316.66
2022-12-13T01:03:56.719Z,77318.66
2022-12-13T01:06:28.989Z,77310.56
2022-12-13T01:08:55.955Z,77320.69
2022-12-13T01:11:23.634Z,77310.56
2022-12-13T01:13:50.721Z,77316.66
2022-12-13T01:16:18.760Z,77310.56
2022-12-13T01:18:46.060Z,77314.63
2022-12-13T01:21:16.722Z,77314.63
2022-12-13T01:23:44.111Z,77314.63
2022-12-13T01:26:17.257Z,77318.66
2022-12-13T01:28:44.189Z,77304.47
2022-12-13T01:31:14.162Z,77306.50
2022-12-13T01:33:42.115Z,77298.41
2022-12-13T01:36:14.340Z,77300.44
2022-12-13T01:38:41.484Z,77306.50
2022-12-13T01:41:20.367Z,77322.72
2022-12-13T01:43:57.531Z,77326.78
2022-12-13T01:46:24.842Z,77324.75
2022-12-13T01:49:00.868Z,77316.66
2022-12-13T01:51:35.919Z,77322.72
2022-12-13T01:54:06.458Z,77349.09
2022-12-13T01:56:48.814Z,77338.94
2022-12-13T01:59:19.135Z,77334.91
2022-12-13T02:01:50.164Z,77363.28
2022-12-13T02:04:26.051Z,77349.09
2022-12-13T02:06:56.169Z,77343.00
2022-12-13T02:09:25.182Z,77351.13
2022-12-13T02:11:53.056Z,77355.16
2022-12-13T02:14:19.912Z,77349.09
2022-12-13T02:16:55.975Z,77355.16
2022-12-13T02:20:07.149Z,77359.22
2022-12-13T02:22:46.176Z,77351.13
2022-12-13T02:25:36.238Z,77343.00
2022-12-13T02:28:31.571Z,77347.06
2022-12-13T02:31:06.014Z,77347.06
2022-12-13T02:33:57.944Z,77347.06
2022-12-13T02:36:38.015Z,77343.00
2022-12-13T02:39:15.599Z,77351.13
2022-12-13T02:41:53.151Z,77357.19
2022-12-13T02:44:28.605Z,77347.06
2022-12-13T02:47:01.032Z,77353.13
2022-12-13T02:49:31.630Z,77351.13
2022-12-13T02:52:00.434Z,77345.03
2022-12-13T02:54:27.523Z,77375.44
2022-12-13T02:56:58.556Z,77359.22
2022-12-13T02:59:36.393Z,77359.22
2022-12-13T03:02:21.599Z,77357.19
2022-12-13T03:05:32.820Z,77343.00
2022-12-13T03:08:21.730Z,77355.16
2022-12-13T03:11:13.121Z,77345.03
2022-12-13T03:13:54.821Z,77336.91
2022-12-13T03:16:25.825Z,77338.94
2022-12-13T03:18:55.320Z,77343.00
2022-12-13T03:21:22.989Z,77338.94
2022-12-13T03:23:50.277Z,77345.03
2022-12-13T03:26:21.386Z,77343.00
2022-12-13T03:28:49.144Z,77330.84
2022-12-13T03:31:16.329Z,77338.94
2022-12-13T03:33:43.336Z,77338.94
2022-12-13T03:36:12.149Z,77330.84
2022-12-13T03:38:40.744Z,77330.84
2022-12-13T03:41:14.075Z,77328.81
2022-12-13T03:43:41.054Z,77314.63
2022-12-13T03:46:09.121Z,77322.72
2022-12-13T03:48:36.376Z,77320.69
2022-12-13T03:51:04.037Z,77326.78
2022-12-13T03:53:33.350Z,77334.91
2022-12-13T03:56:03.512Z,77330.84
2022-12-13T03:58:35.597Z,77318.66
2022-12-13T04:01:07.174Z,77322.72
2022-12-13T04:03:34.500Z,77328.81
2022-12-13T04:06:01.857Z,77326.78
2022-12-13T04:08:29.066Z,77330.84
2022-12-13T04:10:56.361Z,77338.94
2022-12-13T04:13:35.444Z,77334.91
2022-12-13T04:16:03.160Z,77328.81
2022-12-13T04:18:30.186Z,77332.88
2022-12-13T04:20:58.103Z,77340.97
2022-12-13T04:23:25.072Z,77347.06
2022-12-13T04:25:52.528Z,77355.16
2022-12-13T04:28:22.698Z,77361.25
2022-12-13T04:30:53.101Z,77355.16
2022-12-13T04:33:22.432Z,77355.16
2022-12-13T04:35:50.652Z,77363.28
2022-12-13T04:38:18.218Z,77359.22
2022-12-13T04:40:45.569Z,77351.13
2022-12-13T04:43:12.480Z,77359.22
2022-12-13T04:45:39.735Z,77359.22
2022-12-13T04:48:07.015Z,77359.22
2022-12-13T04:50:34.184Z,77365.31
2022-12-13T04:53:01.046Z,77359.22
2022-12-13T04:55:28.158Z,77371.38
2022-12-13T04:57:55.117Z,77383.56
2022-12-13T05:00:23.437Z,77379.50
2022-12-13T05:02:50.642Z,77383.56
2022-12-13T05:05:18.699Z,77381.53
2022-12-13T05:07:46.320Z,77387.59
2022-12-13T05:10:31.954Z,77397.75
2022-12-13T05:13:01.172Z,77403.84
2022-12-13T05:15:30.202Z,77387.59
2022-12-13T05:18:09.986Z,77391.66
2022-12-13T05:20:41.247Z,77403.84
2022-12-13T05:23:09.032Z,77403.84
2022-12-13T05:25:38.893Z,77411.94
2022-12-13T05:28:08.828Z,77420.06
2022-12-13T05:30:54.144Z,77432.22
2022-12-13T05:33:22.523Z,77430.19
2022-12-13T05:35:49.976Z,77440.31
2022-12-13T05:38:17.594Z,77448.44
2022-12-13T05:40:44.965Z,77438.31
2022-12-13T05:43:22.118Z,77444.38
2022-12-13T05:45:50.554Z,77452.50
2022-12-13T05:48:24.666Z,77456.53
2022-12-13T05:51:10.172Z,77450.47
2022-12-13T05:53:42.271Z,77462.63
2022-12-13T05:56:11.182Z,77462.63
2022-12-13T05:58:39.763Z,77468.72
2022-12-13T06:01:09.609Z,77470.75
2022-12-13T06:03:36.738Z,77472.78
2022-12-13T06:06:05.534Z,77476.81
2022-12-13T06:08:32.934Z,77480.88
2022-12-13T06:11:11.078Z,77476.81
2022-12-13T06:13:44.122Z,77480.88
2022-12-13T06:16:22.936Z,77491.03
2022-12-13T06:19:00.940Z,77507.25
2022-12-13T06:21:44.055Z,77495.06
2022-12-13T06:24:17.774Z,77513.31
2022-12-13T06:26:45.968Z,77507.25
2022-12-13T06:29:23.258Z,77513.31
2022-12-13T06:32:02.358Z,77521.44
2022-12-13T06:34:32.871Z,77529.53
2022-12-13T06:37:05.451Z,77525.47
2022-12-13T06:39:33.766Z,77539.69
2022-12-13T06:42:03.400Z,77545.75
2022-12-13T06:44:30.288Z,77551.84
2022-12-13T06:47:10.719Z,77553.88
2022-12-13T06:49:42.259Z,77553.88
2022-12-13T06:52:14.814Z,77561.97
2022-12-13T06:54:43.667Z,77566.03
2022-12-13T06:57:12.959Z,77561.97
2022-12-13T06:59:40.665Z,77592.41
2022-12-13T07:02:24.548Z,77586.31
2022-12-13T07:04:53.741Z,77590.38
2022-12-13T07:07:21.069Z,77592.41
2022-12-13T07:09:48.038Z,77590.38
2022-12-13T07:12:15.202Z,77598.47
2022-12-13T07:14:42.136Z,77606.59
2022-12-13T07:17:10.809Z,77604.56
2022-12-13T07:19:38.083Z,77602.53
2022-12-13T07:22:06.076Z,77618.75
2022-12-13T07:24:35.265Z,77602.53
2022-12-13T07:27:04.088Z,77626.88
2022-12-13T07:29:30.987Z,77618.75
2022-12-13T07:32:01.521Z,77628.91
2022-12-13T07:34:30.130Z,77630.94
2022-12-13T07:36:57.375Z,77630.94
2022-12-13T07:39:27.651Z,77655.25
2022-12-13T07:41:56.119Z,77645.13
2022-12-13T07:44:24.327Z,77639.03
2022-12-13T07:46:52.527Z,77645.13
2022-12-13T07:49:19.911Z,77643.09
2022-12-13T07:51:49.216Z,77643.09
2022-12-13T07:54:16.976Z,77643.09
2022-12-13T07:56:44.303Z,77647.16
2022-12-13T07:59:13.102Z,77647.16
2022-12-13T08:01:40.577Z,77655.25
2022-12-13T08:04:10.617Z,77659.31
2022-12-13T08:06:38.643Z,77665.41
2022-12-13T08:09:06.393Z,77669.44
2022-12-13T08:11:34.059Z,77675.53
2022-12-13T08:14:01.200Z,77663.38
2022-12-13T08:16:30.281Z,77659.31
2022-12-13T08:19:01.622Z,77649.19
2022-12-13T08:21:57.337Z,77651.19
2022-12-13T08:24:27.955Z,77651.19
2022-12-13T08:27:03.018Z,77659.31
2022-12-13T08:29:34.423Z,77663.38
2022-12-13T08:32:08.621Z,77671.47
2022-12-13T08:34:36.554Z,77655.25
2022-12-13T08:37:04.911Z,77649.19
2022-12-13T08:39:37.022Z,77651.19
2022-12-13T08:42:25.293Z,77653.22
2022-12-13T08:44:53.674Z,77647.16
2022-12-13T08:47:26.726Z,77645.13
2022-12-13T08:50:01.429Z,77641.06
2022-12-13T08:52:31.960Z,77651.19
2022-12-13T08:55:12.724Z,77651.19
2022-12-13T08:57:40.736Z,77663.38
2022-12-13T09:00:11.636Z,77659.31
2022-12-13T09:02:39.008Z,77679.59
2022-12-13T09:05:08.261Z,77671.47
2022-12-13T09:07:36.762Z,77671.47
2022-12-13T09:10:07.111Z,77675.53
2022-12-13T09:13:01.923Z,77671.47
2022-12-13T09:15:34.324Z,77671.47
2022-12-13T09:18:04.873Z,77655.25
2022-12-13T09:20:41.289Z,77659.31
2022-12-13T09:23:14.079Z,77655.25
2022-12-13T09:26:05.954Z,77657.28
2022-12-13T09:28:34.766Z,77655.25
2022-12-13T09:31:01.961Z,77659.31
2022-12-13T09:33:30.690Z,77655.25
2022-12-13T09:36:01.315Z,77659.31
2022-12-13T09:38:28.822Z,77667.44
2022-12-13T09:41:00.884Z,77707.97
2022-12-13T09:43:42.966Z,77667.44
2022-12-13T09:46:26.645Z,77655.25
2022-12-13T09:49:03.635Z,77671.47
2022-12-13T09:51:43.736Z,77675.53
2022-12-13T09:54:18.903Z,77675.53
2022-12-13T09:56:50.919Z,77691.75
2022-12-13T09:59:39.600Z,77691.75
2022-12-13T10:02:23.599Z,77683.66
2022-12-13T10:04:52.350Z,77693.78
2022-12-13T10:07:28.981Z,77701.91
2022-12-13T10:10:04.015Z,77703.94
2022-12-13T10:12:32.681Z,77699.88
2022-12-13T10:15:02.399Z,77683.66
2022-12-13T10:17:38.399Z,77695.81
2022-12-13T10:20:06.402Z,77701.91
2022-12-13T10:22:33.746Z,77691.75
2022-12-13T10:25:04.066Z,77687.69
2022-12-13T10:27:46.871Z,77712.03
2022-12-13T10:30:19.690Z,77699.88
2022-12-13T10:33:01.299Z,77695.81
2022-12-13T10:35:41.630Z,77695.81
2022-12-13T10:38:09.023Z,77699.88
2022-12-13T10:40:40.912Z,77699.88
2022-12-13T10:43:12.508Z,77695.81
2022-12-13T10:45:40.470Z,77703.94
2022-12-13T10:48:21.401Z,77691.75
2022-12-13T10:51:13.154Z,77699.88
2022-12-13T10:53:48.148Z,77720.16
2022-12-13T10:56:23.385Z,77716.09
2022-12-13T10:59:17.026Z,77716.09
2022-12-13T11:01:44.719Z,77712.03
2022-12-13T11:04:34.885Z,77710.00
2022-12-13T11:07:23.765Z,77720.16
2022-12-13T11:09:52.794Z,77716.09
2022-12-13T11:12:26.228Z,77716.09
2022-12-13T11:14:58.291Z,77716.09
2022-12-13T11:17:28.347Z,77712.03
2022-12-13T11:20:00.582Z,77703.94
2022-12-13T11:22:32.957Z,77677.56
2022-12-13T11:25:08.945Z,77659.31
2022-12-13T11:27:44.517Z,77639.03
2022-12-13T11:30:38.407Z,77628.91
2022-12-13T11:33:28.643Z,77641.06
2022-12-13T11:36:24.854Z,77622.81
2022-12-13T11:38:58.065Z,77622.81
2022-12-13T11:41:33.111Z,77620.78
2022-12-13T11:44:19.148Z,77634.97
2022-12-13T11:46:56.044Z,77643.09
2022-12-13T11:49:38.774Z,77655.25
2022-12-13T11:52:30.117Z,77679.59
2022-12-13T11:55:01.655Z,77687.69
2022-12-13T11:57:44.218Z,77683.66
2022-12-13T12:00:37.480Z,77675.53
2022-12-13T12:03:15.756Z,77683.66
2022-12-13T12:05:49.499Z,77699.88
2022-12-13T12:08:35.237Z,77710.00
2022-12-13T12:11:17.738Z,77699.88
2022-12-13T12:14:00.709Z,77736.38
2022-12-13T12:16:47.146Z,77740.44
2022-12-13T12:19:20.673Z,77748.53
2022-12-13T12:22:14.268Z,77752.59
2022-12-13T12:24:54.346Z,77758.69
2022-12-13T12:27:46.809Z,77754.63
2022-12-13T12:30:23.267Z,77748.53
2022-12-13T12:33:17.845Z,77746.50
2022-12-13T12:36:06.453Z,77768.81
2022-12-13T12:38:54.375Z,77774.91
2022-12-13T12:41:48.402Z,77789.09
2022-12-13T12:44:33.714Z,77793.16
2022-12-13T12:48:07.230Z,77801.25
2022-12-13T12:50:45.985Z,77793.16
2022-12-13T12:53:16.172Z,77795.19
2022-12-13T12:56:06.047Z,77809.38
2022-12-13T12:59:01.243Z,77821.53
2022-12-13T13:01:43.379Z,77825.59
2022-12-13T13:04:22.550Z,77817.47
2022-12-13T13:07:41.420Z,77815.44
2022-12-13T13:10:26.229Z,77807.34
2022-12-13T13:13:11.473Z,77827.63
2022-12-13T13:16:01.114Z,77833.69
2022-12-13T13:18:46.428Z,77825.59
2022-12-13T13:21:46.243Z,77817.47
2022-12-13T13:24:15.876Z,77825.59
2022-12-13T13:26:52.748Z,77821.53
2022-12-13T13:29:29.432Z,77849.94
2022-12-13T13:32:27.978Z,77858.03
2022-12-13T13:35:28.496Z,77853.97
2022-12-13T13:37:57.211Z,77866.16
2022-12-13T13:40:32.034Z,77860.06
2022-12-13T13:43:05.424Z,77872.22
2022-12-13T13:46:03.164Z,77858.03
2022-12-13T13:48:49.384Z,77849.94
2022-12-13T13:51:49.360Z,77845.88
2022-12-13T13:55:03.508Z,77837.75
2022-12-13T13:58:10.919Z,77829.66
2022-12-13T14:01:15.505Z,77849.94
2022-12-13T14:04:09.187Z,77866.16
2022-12-13T14:07:15.508Z,77882.38
2022-12-13T14:10:02.823Z,77894.53
2022-12-13T14:12:48.619Z,77914.81
2022-12-13T14:15:49.441Z,77926.97
2022-12-13T14:18:32.490Z,77939.16
2022-12-13T14:21:08.316Z,77951.31
2022-12-13T14:23:44.601Z,77953.34
2022-12-13T14:26:23.443Z,77967.53
2022-12-13T14:28:55.398Z,77967.53
2022-12-13T14:31:26.189Z,77971.59
2022-12-13T14:33:55.929Z,77987.81
2022-12-13T14:36:29.146Z,77971.59
2022-12-13T14:39:05.187Z,77971.59
2022-12-13T14:41:34.129Z,77975.66
2022-12-13T14:44:39.802Z,77975.66
2022-12-13T14:47:08.018Z,77983.75
2022-12-13T14:49:39.075Z,77971.59
2022-12-13T14:52:09.389Z,77977.69
2022-12-13T14:54:46.285Z,77975.66
2022-12-13T14:57:17.187Z,77963.50
2022-12-13T14:59:53.289Z,77975.66
2022-12-13T15:02:30.974Z,77981.75
2022-12-13T15:05:01.739Z,77975.66
2022-12-13T15:07:33.674Z,77979.72
2022-12-13T15:10:05.191Z,77979.72
2022-12-13T15:12:32.226Z,77987.81
2022-12-13T15:15:02.468Z,77979.72
2022-12-13T15:17:35.803Z,77983.75
2022-12-13T15:20:22.466Z,77983.75
2022-12-13T15:23:11.740Z,77987.81
2022-12-13T15:25:42.545Z,77987.81
2022-12-13T15:28:16.856Z,77987.81
2022-12-13T15:30:47.618Z,77983.75
2022-12-13T15:33:25.230Z,77991.88
2022-12-13T15:36:04.271Z,77995.94
2022-12-13T15:38:32.129Z,78004.03
2022-12-13T15:41:00.835Z,78004.03
2022-12-13T15:43:36.266Z,78008.09
2022-12-13T15:46:06.608Z,78004.03
2022-12-13T15:48:48.191Z,78002.00
2022-12-13T15:51:28.455Z,78012.16
2022-12-13T15:54:03.212Z,78000.00
2022-12-13T15:56:36.553Z,77991.88
2022-12-13T15:59:05.062Z,77989.84
2022-12-13T16:01:36.797Z,77987.81
2022-12-13T16:04:05.965Z,77983.75
2022-12-13T16:06:33.923Z,77987.81
2022-12-13T16:09:03.957Z,77997.97
2022-12-13T16:11:39.151Z,77995.94
2022-12-13T16:14:27.144Z,77991.88
2022-12-13T16:16:55.751Z,77991.88
2022-12-13T16:19:23.080Z,77995.94
2022-12-13T16:21:50.314Z,77987.81
2022-12-13T16:24:17.249Z,77985.78
2022-12-13T16:26:46.822Z,78000.00
2022-12-13T16:29:21.232Z,77991.88
2022-12-13T16:31:48.974Z,78004.03
2022-12-13T16:34:18.110Z,77995.94
2022-12-13T16:36:47.550Z,78002.00
2022-12-13T16:39:15.245Z,78000.00
2022-12-13T16:41:45.696Z,78000.00
2022-12-13T16:44:35.785Z,77995.94
2022-12-13T16:47:13.096Z,78004.03
2022-12-13T16:49:47.323Z,78012.16
2022-12-13T16:52:15.069Z,78008.09
2022-12-13T16:54:42.144Z,78004.03
2022-12-13T16:57:09.562Z,78016.22
2022-12-13T16:59:36.368Z,78012.16
2022-12-13T17:02:04.379Z,78016.22
2022-12-13T17:04:31.403Z,78022.28
2022-12-13T17:06:58.530Z,78008.09
2022-12-13T17:09:25.518Z,78008.09
2022-12-13T17:11:52.968Z,78016.22
2022-12-13T17:14:19.808Z,78012.16
2022-12-13T17:16:47.397Z,78016.22
2022-12-13T17:19:15.718Z,78024.31
2022-12-13T17:21:43.153Z,78008.09
2022-12-13T17:24:10.100Z,78020.28
2022-12-13T17:26:37.251Z,78016.22
2022-12-13T17:29:05.134Z,78016.22
2022-12-13T17:31:35.653Z,78014.19
2022-12-13T17:34:04.152Z,78016.22
2022-12-13T17:36:31.657Z,78016.22
2022-12-13T17:38:58.823Z,78014.19
2022-12-13T17:41:26.345Z,78020.28
2022-12-13T17:43:53.166Z,78020.28
2022-12-13T17:46:20.506Z,78030.41
2022-12-13T17:48:48.855Z,78026.34
2022-12-13T17:51:16.285Z,78044.59
2022-12-13T17:53:44.492Z,78044.59
2022-12-13T17:56:15.150Z,78040.56
2022-12-13T17:58:42.750Z,78036.50
2022-12-13T18:01:15.427Z,78044.59
2022-12-13T18:03:43.234Z,78044.59
2022-12-13T18:06:10.988Z,78040.56
2022-12-13T18:08:39.681Z,78046.63
2022-12-13T18:11:31.864Z,78044.59
2022-12-13T18:13:55.655Z,78056.78
2022-12-13T18:16:28.950Z,78064.88
2022-12-13T18:19:01.124Z,78064.88
2022-12-13T18:21:28.285Z,78068.94
2022-12-13T18:23:56.256Z,78070.97
2022-12-13T18:26:24.521Z,78064.88
2022-12-13T18:28:52.134Z,78073.00
2022-12-13T18:31:22.515Z,78081.09
2022-12-13T18:33:52.080Z,78081.09
2022-12-13T18:36:21.603Z,78068.94
2022-12-13T18:38:48.622Z,78089.22
2022-12-13T18:41:24.677Z,78079.09
2022-12-13T18:44:00.313Z,78087.19
2022-12-13T18:46:30.545Z,78085.16
2022-12-13T18:48:57.656Z,78087.19
2022-12-13T18:51:25.450Z,78085.16
2022-12-13T18:53:52.914Z,78087.19
2022-12-13T18:56:20.853Z,78097.34
2022-12-13T18:58:49.001Z,78097.34
2022-12-13T19:01:17.392Z,78097.34
2022-12-13T19:03:46.312Z,78121.66
2022-12-13T19:06:17.398Z,78117.63
2022-12-13T19:08:51.487Z,78113.56
2022-12-13T19:11:19.998Z,78113.56
2022-12-13T19:13:47.348Z,78113.56
2022-12-13T19:16:17.387Z,78117.63
2022-12-13T19:18:44.265Z,78113.56
2022-12-13T19:21:14.477Z,78121.66
2022-12-13T19:23:42.490Z,78121.66
2022-12-13T19:26:13.217Z,78117.63
2022-12-13T19:28:44.215Z,78123.69
2022-12-13T19:31:12.202Z,78117.63
2022-12-13T19:33:42.046Z,78115.59
2022-12-13T19:36:09.856Z,78115.59
2022-12-13T19:38:37.275Z,78129.78
2022-12-13T19:41:16.430Z,78127.75
2022-12-13T19:43:50.762Z,78137.91
2022-12-13T19:46:20.418Z,78146.00
2022-12-13T19:48:47.713Z,78146.00
2022-12-13T19:51:15.230Z,78148.03
2022-12-13T19:53:42.371Z,78166.28
2022-12-13T19:56:11.550Z,78166.28
2022-12-13T19:58:39.533Z,78176.44
2022-12-13T20:01:08.042Z,78176.44
2022-12-13T20:03:45.702Z,78188.59
2022-12-13T20:06:16.972Z,78198.72
2022-12-13T20:08:44.385Z,78206.84
2022-12-13T20:11:15.157Z,78216.97
2022-12-13T20:13:42.007Z,78227.13
2022-12-13T20:16:15.411Z,78231.19
2022-12-13T20:18:42.329Z,78239.28
2022-12-13T20:21:13.189Z,78243.34
2022-12-13T20:23:48.959Z,78247.41
2022-12-13T20:26:20.097Z,78255.53
2022-12-13T20:28:47.627Z,78265.66
2022-12-13T20:31:18.472Z,78263.63
2022-12-13T20:33:45.528Z,78279.84
2022-12-13T20:36:26.508Z,78287.97
2022-12-13T20:38:56.432Z,78287.97
2022-12-13T20:41:26.196Z,78296.09
2022-12-13T20:43:54.981Z,78296.09
2022-12-13T20:46:23.144Z,78326.50
2022-12-13T20:48:51.151Z,78316.34
2022-12-13T20:51:21.482Z,78312.31
2022-12-13T20:53:49.536Z,78328.53
2022-12-13T20:56:19.913Z,78328.53
2022-12-13T20:58:47.657Z,78336.66
2022-12-13T21:01:17.783Z,78340.69
2022-12-13T21:03:45.457Z,78344.75
2022-12-13T21:06:13.548Z,78354.91
2022-12-13T21:08:53.048Z,78356.94
2022-12-13T21:11:38.338Z,78365.03
2022-12-13T21:14:37.341Z,78369.09
2022-12-13T21:17:09.609Z,78385.31
2022-12-13T21:19:40.155Z,78377.22
2022-12-13T21:22:08.268Z,78385.31
2022-12-13T21:24:35.231Z,78401.53
2022-12-13T21:27:02.500Z,78405.59
2022-12-13T21:29:29.335Z,78405.59
2022-12-13T21:31:56.530Z,78413.72
2022-12-13T21:34:23.506Z,78417.78
2022-12-13T21:36:52.463Z,78429.94
2022-12-13T21:39:23.196Z,78425.88
2022-12-13T21:41:50.534Z,78431.97
2022-12-13T21:44:18.296Z,78434.00
2022-12-13T21:49:32.626Z,78442.09
2022-12-13T21:51:59.679Z,78436.03
2022-12-13T21:54:26.513Z,78450.22
2022-12-13T21:57:12.755Z,78450.22
2022-12-13T21:59:39.584Z,78446.16
2022-12-13T22:02:12.606Z,78452.25
2022-12-13T22:04:39.642Z,78450.22
2022-12-13T22:07:08.396Z,78462.38
2022-12-13T22:09:36.696Z,78450.22
2022-12-13T22:12:09.603Z,78458.34
2022-12-13T22:14:37.365Z,78450.22
2022-12-13T22:17:04.697Z,78458.34
2022-12-13T22:19:31.694Z,78468.47
2022-12-13T22:21:59.244Z,78474.56
2022-12-13T22:24:26.126Z,78466.44
2022-12-13T22:26:53.265Z,78478.63
2022-12-13T22:29:20.169Z,78478.63
2022-12-13T22:31:48.780Z,78480.66
2022-12-13T22:34:16.742Z,78482.66
2022-12-13T22:36:43.914Z,78478.63
2022-12-13T22:39:19.454Z,78482.66
2022-12-13T22:41:47.811Z,78486.72
2022-12-13T22:44:16.306Z,78486.72
2022-12-13T22:46:43.741Z,78486.72
2022-12-13T22:49:11.405Z,78486.72
2022-12-13T22:51:38.890Z,78490.78
2022-12-13T22:54:06.410Z,78484.69
2022-12-13T22:56:33.835Z,78492.81
2022-12-13T22:59:02.265Z,78488.75
2022-12-13T23:01:32.537Z,78486.72
2022-12-13T23:04:17.918Z,78486.72
2022-12-13T23:06:45.358Z,78486.72
2022-12-13T23:09:13.636Z,78492.81
2022-12-13T23:11:59.616Z,78486.72
2022-12-13T23:14:29.528Z,78494.84
2022-12-13T23:16:56.942Z,78490.78
2022-12-13T23:19:53.973Z,78494.84
2022-12-13T23:22:11.257Z,78494.84
2022-12-13T23:24:38.106Z,78498.91
2022-12-13T23:27:05.256Z,78504.97
2022-12-13T23:29:32.142Z,78502.94
2022-12-13T23:31:59.256Z,78513.09
2022-12-13T23:34:26.453Z,78507.00
2022-12-13T23:36:53.543Z,78509.03
2022-12-13T23:39:20.363Z,78511.06
2022-12-13T23:41:47.635Z,78519.19
2022-12-13T23:44:14.519Z,78519.19
2022-12-13T23:46:41.846Z,78523.25
2022-12-13T23:49:15.857Z,78515.13
2022-12-13T23:51:43.453Z,78519.19
2022-12-13T23:54:15.684Z,78519.19
2022-12-13T23:56:42.944Z,78519.19
2022-12-13T23:59:09.713Z,78531.34
